Aviation Digital Data Service (ADDS)

Output produced by METARs form (1307 UTC 30 July 2014)
found at http://www.aviationweather.gov/adds/metars/
 
KBMI 301120Z 3012/3112 25005KT P6SM SKC 
     FM301500 29010KT P6SM SCT040 
     FM310000 VRB03KT P6SM SKC